createdAt,value
2022-12-07T00:06:35.938Z,7.50
2022-12-07T00:09:12.475Z,7.50
2022-12-07T00:11:45.787Z,7.50
2022-12-07T00:14:19.093Z,7.50
2022-12-07T00:16:52.906Z,7.50
2022-12-07T00:19:24.820Z,7.40
2022-12-07T00:21:56.726Z,7.50
2022-12-07T00:24:28.706Z,7.40
2022-12-07T00:27:00.618Z,7.50
2022-12-07T00:29:32.532Z,7.40
2022-12-07T00:32:05.143Z,7.50
2022-12-07T00:34:37.202Z,7.40
2022-12-07T00:37:09.180Z,7.40
2022-12-07T00:39:41.076Z,7.30
2022-12-07T00:42:13.088Z,7.30
2022-12-07T00:44:44.962Z,7.30
2022-12-07T00:47:16.850Z,7.20
2022-12-07T00:49:48.778Z,7.20
2022-12-07T00:52:20.682Z,7.10
2022-12-07T00:54:52.822Z,7.10
2022-12-07T00:57:24.767Z,7.10
2022-12-07T00:59:58.785Z,7.10
2022-12-07T01:02:30.992Z,7.10
2022-12-07T01:21:43.291Z,7.00
2022-12-07T01:24:15.425Z,7.00
2022-12-07T01:26:50.962Z,6.90
2022-12-07T01:29:22.878Z,7.00
2022-12-07T01:31:54.789Z,6.90
2022-12-07T01:38:38.284Z,6.90
2022-12-07T01:41:10.590Z,6.90
2022-12-07T01:44:26.694Z,6.90
2022-12-07T01:47:02.820Z,6.90
2022-12-07T01:49:49.992Z,6.90
2022-12-07T01:52:29.067Z,7.00
2022-12-07T01:55:08.660Z,7.00
2022-12-07T01:57:50.017Z,7.00
2022-12-07T02:00:22.173Z,7.00
2022-12-07T02:03:01.129Z,6.90
2022-12-07T02:05:35.425Z,7.00
2022-12-07T02:08:08.852Z,7.00
2022-12-07T02:10:41.446Z,7.00
2022-12-07T02:13:36.025Z,7.10
2022-12-07T02:16:22.503Z,7.10
2022-12-07T02:19:36.692Z,7.10
2022-12-07T02:22:41.559Z,7.10
2022-12-07T02:25:28.679Z,7.10
2022-12-07T02:28:15.235Z,7.10
2022-12-07T02:30:51.442Z,7.10
2022-12-07T02:33:36.811Z,7.10
2022-12-07T02:36:18.374Z,7.00
2022-12-07T02:39:17.872Z,7.00
2022-12-07T02:41:59.517Z,7.00
2022-12-07T02:44:33.972Z,7.00
2022-12-07T02:47:12.224Z,7.00
2022-12-07T02:49:45.372Z,7.00
2022-12-07T02:52:17.276Z,7.00
2022-12-07T02:54:49.292Z,7.00
2022-12-07T02:57:39.231Z,7.00
2022-12-07T03:00:18.751Z,7.00
2022-12-07T03:03:13.527Z,7.00
2022-12-07T03:06:17.656Z,7.00
2022-12-07T03:09:23.002Z,7.00
2022-12-07T03:12:15.969Z,7.00
2022-12-07T03:15:00.580Z,7.00
2022-12-07T03:17:38.838Z,7.00
2022-12-07T03:20:17.079Z,7.00
2022-12-07T03:22:49.701Z,7.00
2022-12-07T03:25:23.296Z,7.00
2022-12-07T03:28:03.250Z,7.00
2022-12-07T03:30:50.691Z,6.90
2022-12-07T03:33:42.591Z,7.00
2022-12-07T03:36:47.594Z,6.90
2022-12-07T03:39:31.144Z,6.90
2022-12-07T03:42:07.223Z,6.80
2022-12-07T03:44:41.403Z,6.80
2022-12-07T03:47:35.387Z,6.80
2022-12-07T03:50:40.395Z,6.80
2022-12-07T03:53:37.187Z,6.80
2022-12-07T03:56:11.799Z,6.80
2022-12-07T03:58:44.879Z,6.80
2022-12-07T04:01:18.929Z,6.80
2022-12-07T04:03:50.890Z,6.80
2022-12-07T04:06:22.992Z,6.80
2022-12-07T04:08:54.908Z,6.80
2022-12-07T04:11:26.813Z,6.80
2022-12-07T04:14:17.058Z,6.80
2022-12-07T04:16:58.152Z,6.80
2022-12-07T04:19:34.005Z,6.80
2022-12-07T04:22:07.031Z,6.80
2022-12-07T04:24:40.071Z,6.80
2022-12-07T04:27:12.338Z,6.80
2022-12-07T04:29:44.587Z,6.80
2022-12-07T04:32:16.569Z,6.80
2022-12-07T04:34:51.494Z,6.80
2022-12-07T04:37:27.239Z,6.80
2022-12-07T04:39:59.402Z,6.80
2022-12-07T04:42:31.494Z,6.80
2022-12-07T04:45:04.225Z,6.80
2022-12-07T04:47:36.354Z,6.80
2022-12-07T04:50:10.666Z,6.90
2022-12-07T04:52:42.620Z,6.90
2022-12-07T04:55:14.565Z,6.90
2022-12-07T04:57:46.490Z,6.90
2022-12-07T05:00:18.842Z,6.90
2022-12-07T05:02:50.763Z,7.00
2022-12-07T05:05:22.838Z,7.00
2022-12-07T05:07:55.202Z,7.00
2022-12-07T05:10:27.168Z,6.90
2022-12-07T05:12:59.117Z,6.90
2022-12-07T05:15:31.018Z,6.90
2022-12-07T05:18:04.358Z,6.90
2022-12-07T05:20:42.071Z,6.90
2022-12-07T05:23:14.606Z,6.90
2022-12-07T05:25:47.640Z,6.90
2022-12-07T05:28:19.599Z,6.90
2022-12-07T05:30:55.645Z,7.00
2022-12-07T05:33:30.357Z,7.00
2022-12-07T05:36:06.475Z,7.00
2022-12-07T05:38:38.433Z,7.00
2022-12-07T05:41:34.725Z,7.00
2022-12-07T05:44:06.785Z,7.00
2022-12-07T05:46:38.764Z,7.00
2022-12-07T05:49:10.696Z,7.00
2022-12-07T05:51:42.791Z,7.00
2022-12-07T05:54:14.787Z,7.00
2022-12-07T05:56:46.735Z,7.00
2022-12-07T05:59:24.750Z,7.00
2022-12-07T06:02:16.751Z,7.00
2022-12-07T06:04:48.893Z,7.10
2022-12-07T06:07:20.805Z,7.00
2022-12-07T06:09:53.527Z,7.00
2022-12-07T06:12:39.398Z,7.00
2022-12-07T06:15:14.071Z,7.00
2022-12-07T06:17:46.005Z,7.00
2022-12-07T06:20:18.001Z,7.00
2022-12-07T06:22:49.998Z,6.90
2022-12-07T06:25:22.007Z,6.90
2022-12-07T06:27:56.323Z,6.80
2022-12-07T06:30:28.236Z,6.80
2022-12-07T06:33:00.153Z,6.80
2022-12-07T06:35:34.659Z,6.70
2022-12-07T06:38:06.568Z,6.70
2022-12-07T06:40:38.553Z,6.70
2022-12-07T06:43:10.574Z,6.70
2022-12-07T06:45:43.419Z,6.70
2022-12-07T06:48:15.375Z,6.70
2022-12-07T06:50:54.323Z,6.70
2022-12-07T06:53:27.119Z,6.70
2022-12-07T06:55:59.137Z,6.70
2022-12-07T06:58:31.208Z,6.70
2022-12-07T07:01:04.195Z,6.60
2022-12-07T07:03:36.129Z,6.60
2022-12-07T07:06:09.110Z,6.50
2022-12-07T07:08:41.763Z,6.50
2022-12-07T07:11:14.037Z,6.50
2022-12-07T07:13:46.907Z,6.40
2022-12-07T07:16:18.876Z,6.40
2022-12-07T07:18:50.892Z,6.40
2022-12-07T07:21:22.870Z,6.40
2022-12-07T07:23:54.825Z,6.40
2022-12-07T07:26:26.802Z,6.40
2022-12-07T07:28:58.682Z,6.40
2022-12-07T07:31:30.657Z,6.40
2022-12-07T07:34:02.747Z,6.30
2022-12-07T07:36:34.686Z,6.40
2022-12-07T07:39:06.871Z,6.40
2022-12-07T07:41:38.749Z,6.50
2022-12-07T07:44:11.178Z,6.50
2022-12-07T07:46:43.133Z,6.50
2022-12-07T07:49:15.036Z,6.50
2022-12-07T07:51:46.977Z,6.50
2022-12-07T07:54:19.127Z,6.50
2022-12-07T07:56:51.028Z,6.60
2022-12-07T07:59:23.071Z,6.60
2022-12-07T08:01:55.104Z,6.50
2022-12-07T08:04:27.278Z,6.50
2022-12-07T08:06:59.174Z,6.50
2022-12-07T08:09:31.151Z,6.50
2022-12-07T08:12:03.576Z,6.50
2022-12-07T08:14:35.980Z,6.50
2022-12-07T08:17:08.048Z,6.50
2022-12-07T08:19:40.098Z,6.50
2022-12-07T08:22:12.033Z,6.50
2022-12-07T08:24:44.031Z,6.50
2022-12-07T08:27:16.052Z,6.50
2022-12-07T08:29:48.085Z,6.40
2022-12-07T08:32:20.048Z,6.40
2022-12-07T08:34:53.651Z,6.40
2022-12-07T08:37:25.565Z,6.40
2022-12-07T08:39:57.479Z,6.50
2022-12-07T08:42:30.909Z,6.50
2022-12-07T08:45:02.944Z,6.50
2022-12-07T08:47:39.911Z,6.60
2022-12-07T08:50:13.050Z,6.60
2022-12-07T08:52:45.354Z,6.70
2022-12-07T08:55:17.546Z,6.70
2022-12-07T08:57:49.728Z,6.70
2022-12-07T09:00:22.036Z,6.70
2022-12-07T09:02:55.681Z,6.70
2022-12-07T09:05:27.782Z,6.70
2022-12-07T09:08:02.788Z,6.70
2022-12-07T09:10:34.761Z,6.70
2022-12-07T09:13:06.707Z,6.80
2022-12-07T09:15:38.779Z,6.80
2022-12-07T09:18:10.761Z,6.80
2022-12-07T09:20:42.762Z,6.80
2022-12-07T09:23:14.743Z,6.80
2022-12-07T09:25:46.688Z,6.80
2022-12-07T09:28:18.940Z,6.80
2022-12-07T09:31:22.320Z,6.90
2022-12-07T09:33:43.029Z,6.90
2022-12-07T09:36:15.003Z,6.90
2022-12-07T09:38:46.905Z,7.00
2022-12-07T09:41:20.360Z,7.00
2022-12-07T09:43:54.137Z,7.00
2022-12-07T09:46:26.809Z,7.00
2022-12-07T09:48:58.791Z,7.00
2022-12-07T09:51:31.183Z,7.00
2022-12-07T09:54:03.486Z,7.00
2022-12-07T09:56:35.493Z,7.20
2022-12-07T09:59:10.751Z,7.50
2022-12-07T10:01:43.634Z,7.80
2022-12-07T10:04:23.352Z,8.30
2022-12-07T10:06:55.370Z,9.00
2022-12-07T10:09:30.066Z,9.50
2022-12-07T10:12:12.505Z,9.70
2022-12-07T10:15:10.562Z,9.60
2022-12-07T10:17:51.305Z,9.50
2022-12-07T10:20:28.243Z,9.30
2022-12-07T10:23:14.866Z,9.00
2022-12-07T10:25:48.198Z,8.90
2022-12-07T10:28:20.472Z,9.20
2022-12-07T10:31:04.368Z,9.70
2022-12-07T10:34:39.551Z,10.10
2022-12-07T10:37:20.764Z,10.20
2022-12-07T10:39:58.187Z,10.10
2022-12-07T10:42:32.479Z,10.10
2022-12-07T10:45:13.555Z,10.10
2022-12-07T10:48:06.222Z,10.00
2022-12-07T10:51:13.206Z,10.10
2022-12-07T10:54:27.424Z,10.40
2022-12-07T10:57:43.177Z,10.90
2022-12-07T11:00:26.200Z,11.70
2022-12-07T11:03:32.572Z,12.30
2022-12-07T11:06:14.913Z,12.60
2022-12-07T11:09:16.644Z,12.60
2022-12-07T11:12:51.411Z,12.60
2022-12-07T11:15:56.663Z,12.00
2022-12-07T11:19:00.206Z,11.50
2022-12-07T11:21:57.293Z,11.20
2022-12-07T11:24:51.610Z,10.80
2022-12-07T11:28:06.699Z,10.50
2022-12-07T11:45:29.567Z,9.30
2022-12-07T11:48:29.770Z,9.20
2022-12-07T11:51:05.663Z,9.20
2022-12-07T11:54:02.628Z,9.20
2022-12-07T11:56:39.888Z,9.10
2022-12-07T11:59:28.970Z,9.00
2022-12-07T12:02:32.759Z,8.90
2022-12-07T12:05:18.590Z,8.90
2022-12-07T12:15:19.986Z,8.80
2022-12-07T12:18:21.292Z,8.80
2022-12-07T12:21:19.812Z,8.70
2022-12-07T12:24:19.397Z,8.70
2022-12-07T12:27:25.450Z,8.70
2022-12-07T12:30:03.263Z,8.90
2022-12-07T12:32:45.811Z,9.30
2022-12-07T12:35:38.542Z,9.60
2022-12-07T12:38:48.681Z,10.10
2022-12-07T12:41:52.876Z,10.70
2022-12-07T12:44:31.310Z,11.20
2022-12-07T12:48:04.014Z,11.40
2022-12-07T12:50:38.977Z,11.60
2022-12-07T12:53:27.275Z,11.80
2022-12-07T12:56:55.159Z,11.80
2022-12-07T12:59:42.871Z,11.50
2022-12-07T13:02:30.523Z,11.00
2022-12-07T13:05:33.303Z,10.70
2022-12-07T13:08:31.885Z,10.40
2022-12-07T13:11:45.168Z,10.30
2022-12-07T13:14:38.553Z,10.10
2022-12-07T13:17:33.450Z,9.90
2022-12-07T13:20:17.284Z,9.70
2022-12-07T13:22:53.120Z,9.50
2022-12-07T13:25:45.321Z,9.50
2022-12-07T13:28:20.894Z,9.40
2022-12-07T13:31:14.550Z,9.40
2022-12-07T13:33:49.978Z,9.40
2022-12-07T13:36:28.002Z,9.30
2022-12-07T13:39:26.920Z,9.30
2022-12-07T13:42:01.345Z,9.30
2022-12-07T13:44:42.659Z,9.70
2022-12-07T13:47:24.736Z,10.00
2022-12-07T13:49:58.244Z,10.00
2022-12-07T13:52:32.872Z,9.90
2022-12-07T13:55:07.977Z,9.70
2022-12-07T13:57:42.135Z,9.50
2022-12-07T14:00:25.088Z,9.50
2022-12-07T14:03:15.637Z,9.30
2022-12-07T14:06:03.765Z,9.20
2022-12-07T14:08:36.032Z,9.10
2022-12-07T14:11:22.126Z,9.10
2022-12-07T14:14:04.514Z,9.10
2022-12-07T14:16:42.744Z,9.10
2022-12-07T14:19:48.916Z,9.00
2022-12-07T14:22:39.612Z,9.00
2022-12-07T14:25:14.661Z,8.90
2022-12-07T14:28:05.318Z,8.90
2022-12-07T14:30:37.655Z,8.80
2022-12-07T14:33:10.498Z,8.80
2022-12-07T14:35:43.002Z,8.80
2022-12-07T14:38:15.033Z,8.80
2022-12-07T14:40:54.479Z,8.80
2022-12-07T14:43:26.736Z,8.80
2022-12-07T14:45:59.969Z,8.80
2022-12-07T14:54:34.041Z,8.70
2022-12-07T14:57:06.307Z,8.70
2022-12-07T14:59:43.302Z,8.60
2022-12-07T15:02:18.171Z,8.60
2022-12-07T15:04:50.620Z,8.60
2022-12-07T15:07:24.091Z,8.60
2022-12-07T15:09:56.273Z,8.60
2022-12-07T15:12:29.433Z,8.60
2022-12-07T15:15:03.226Z,8.50
2022-12-07T15:17:35.732Z,8.50
2022-12-07T15:20:14.247Z,8.60
2022-12-07T15:22:48.748Z,8.50
2022-12-07T15:25:20.911Z,8.50
2022-12-07T15:27:53.040Z,8.50
2022-12-07T15:30:25.256Z,8.50
2022-12-07T15:32:57.762Z,8.40
2022-12-07T15:35:30.224Z,8.40
2022-12-07T15:38:10.514Z,8.40
2022-12-07T15:40:42.653Z,8.30
2022-12-07T15:43:33.542Z,8.40
2022-12-07T15:46:06.545Z,8.40
2022-12-07T15:48:39.109Z,8.30
2022-12-07T15:51:11.605Z,8.30
2022-12-07T15:53:46.412Z,8.30
2022-12-07T15:56:20.871Z,8.30
2022-12-07T15:58:53.323Z,8.40
2022-12-07T16:01:25.555Z,8.30
2022-12-07T16:04:00.210Z,8.30
2022-12-07T16:06:34.745Z,8.30
2022-12-07T16:09:08.352Z,8.30
2022-12-07T16:11:44.497Z,8.30
2022-12-07T16:14:18.901Z,8.20
2022-12-07T16:16:53.660Z,8.20
2022-12-07T16:19:33.722Z,8.20
2022-12-07T16:22:06.300Z,8.20
2022-12-07T16:24:38.554Z,8.20
2022-12-07T16:27:11.293Z,8.20
2022-12-07T16:29:45.743Z,8.20
2022-12-07T16:32:18.006Z,8.20
2022-12-07T16:34:52.839Z,8.20
2022-12-07T16:37:25.035Z,8.20
2022-12-07T16:39:59.551Z,8.10
2022-12-07T16:42:36.213Z,8.10
2022-12-07T16:45:09.188Z,8.10
2022-12-07T16:47:42.192Z,8.10
2022-12-07T16:50:14.390Z,8.10
2022-12-07T16:52:46.519Z,8.10
2022-12-07T16:55:18.569Z,8.10
2022-12-07T16:57:50.730Z,8.00
2022-12-07T17:00:23.075Z,8.00
2022-12-07T17:02:56.222Z,8.00
2022-12-07T17:05:31.401Z,8.00
2022-12-07T17:08:04.249Z,8.00
2022-12-07T17:10:39.832Z,7.90
2022-12-07T17:13:33.217Z,7.90
2022-12-07T17:16:07.310Z,7.90
2022-12-07T17:18:42.140Z,7.80
2022-12-07T17:21:14.312Z,7.80
2022-12-07T17:23:46.770Z,7.80
2022-12-07T17:26:27.367Z,7.80
2022-12-07T17:29:07.351Z,7.70
2022-12-07T17:31:41.373Z,7.70
2022-12-07T17:34:16.736Z,7.70
2022-12-07T17:36:48.878Z,7.70
2022-12-07T17:39:21.173Z,7.70
2022-12-07T17:42:11.751Z,7.80
2022-12-07T17:44:43.918Z,7.80
2022-12-07T17:47:18.175Z,7.70
2022-12-07T17:49:50.391Z,7.80
2022-12-07T17:52:41.328Z,7.70
2022-12-07T17:55:13.370Z,7.70
2022-12-07T17:57:48.933Z,7.70
2022-12-07T18:00:21.544Z,7.70
2022-12-07T18:02:53.875Z,7.60
2022-12-07T18:05:26.184Z,7.60
2022-12-07T18:07:58.598Z,7.60
2022-12-07T18:10:31.339Z,7.60
2022-12-07T18:13:32.794Z,7.60
2022-12-07T18:16:09.587Z,7.60
2022-12-07T18:18:44.294Z,7.60
2022-12-07T18:21:22.002Z,7.60
2022-12-07T18:23:59.226Z,7.60
2022-12-07T18:26:37.838Z,7.60
2022-12-07T18:29:15.596Z,7.60
2022-12-07T18:31:48.842Z,7.60
2022-12-07T18:34:21.069Z,7.60
2022-12-07T18:36:53.519Z,7.60
2022-12-07T18:39:30.113Z,7.50
2022-12-07T18:42:05.640Z,7.50
2022-12-07T18:44:37.833Z,7.50
2022-12-07T18:47:10.109Z,7.50
2022-12-07T18:49:42.651Z,7.50
2022-12-07T18:52:17.257Z,7.50
2022-12-07T18:54:49.329Z,7.60
2022-12-07T18:57:21.364Z,7.60
2022-12-07T18:59:55.963Z,7.60
2022-12-07T19:02:27.956Z,7.50
2022-12-07T19:05:02.583Z,7.50
2022-12-07T19:07:35.250Z,7.50
2022-12-07T19:10:08.507Z,7.50
2022-12-07T19:12:41.306Z,7.50
2022-12-07T19:15:16.222Z,7.50
2022-12-07T19:17:48.294Z,7.40
2022-12-07T19:20:20.504Z,7.40
2022-12-07T19:22:53.841Z,7.30
2022-12-07T19:25:26.014Z,7.30
2022-12-07T19:27:58.046Z,7.30
2022-12-07T19:30:30.396Z,7.30
2022-12-07T19:33:02.491Z,7.30
2022-12-07T19:35:34.652Z,7.20
2022-12-07T19:38:06.687Z,7.20
2022-12-07T19:40:39.101Z,7.20
2022-12-07T19:43:14.205Z,7.20
2022-12-07T19:45:47.190Z,7.20
2022-12-07T19:48:19.469Z,7.20
2022-12-07T19:50:51.733Z,7.10
2022-12-07T19:53:23.972Z,7.10
2022-12-07T19:55:56.146Z,7.10
2022-12-07T19:58:28.670Z,7.10
2022-12-07T20:01:04.990Z,7.00
2022-12-07T20:03:37.187Z,7.00
2022-12-07T20:06:13.235Z,7.00
2022-12-07T20:08:48.036Z,7.00
2022-12-07T20:11:39.712Z,6.90
2022-12-07T20:14:13.513Z,7.00
2022-12-07T20:16:45.880Z,7.00
2022-12-07T20:19:18.456Z,7.00
2022-12-07T20:21:51.767Z,7.00
2022-12-07T20:24:26.103Z,6.90
2022-12-07T20:26:58.408Z,6.90
2022-12-07T20:29:30.815Z,6.90
2022-12-07T20:32:03.044Z,7.00
2022-12-07T20:34:35.146Z,6.90
2022-12-07T20:37:07.529Z,6.90
2022-12-07T20:39:39.827Z,6.90
2022-12-07T20:42:33.903Z,6.90
2022-12-07T20:45:11.033Z,6.90
2022-12-07T20:47:43.649Z,6.90
2022-12-07T20:50:15.742Z,7.00
2022-12-07T20:52:48.056Z,7.00
2022-12-07T20:55:23.004Z,7.00
2022-12-07T20:57:55.536Z,7.00
2022-12-07T21:00:27.673Z,7.00
2022-12-07T21:02:59.818Z,6.90
2022-12-07T21:05:35.861Z,6.90
2022-12-07T21:08:08.397Z,6.90
2022-12-07T21:10:40.623Z,7.00
2022-12-07T21:13:12.892Z,6.90
2022-12-07T21:15:48.192Z,7.00
2022-12-07T21:18:30.252Z,6.90
2022-12-07T21:21:05.934Z,6.90
2022-12-07T21:23:50.132Z,6.90
2022-12-07T21:26:24.639Z,6.90
2022-12-07T21:29:02.567Z,6.90
2022-12-07T21:31:37.250Z,6.90
2022-12-07T21:34:09.662Z,6.90
2022-12-07T21:36:41.915Z,6.90
2022-12-07T21:39:14.197Z,6.80
2022-12-07T21:41:55.300Z,6.80
2022-12-07T21:44:27.550Z,6.80
2022-12-07T21:47:00.677Z,6.80
2022-12-07T21:49:35.673Z,6.70
2022-12-07T21:52:10.892Z,6.70
2022-12-07T21:54:44.843Z,6.70
2022-12-07T21:57:16.903Z,6.70
2022-12-07T21:59:52.027Z,6.70
2022-12-07T22:02:24.335Z,6.70
2022-12-07T22:04:56.584Z,6.70
2022-12-07T22:07:29.754Z,6.70
2022-12-07T22:10:01.923Z,6.70
2022-12-07T22:12:34.050Z,6.70
2022-12-07T22:15:07.360Z,6.70
2022-12-07T22:17:39.563Z,6.70
2022-12-07T22:20:11.700Z,6.70
2022-12-07T22:22:44.903Z,6.70
2022-12-07T22:25:17.591Z,6.70
2022-12-07T22:27:49.855Z,6.60
2022-12-07T22:30:23.989Z,6.60
2022-12-07T22:32:56.109Z,6.60
2022-12-07T22:35:28.978Z,6.60
2022-12-07T22:38:02.515Z,6.60
2022-12-07T22:40:37.808Z,6.60
2022-12-07T22:43:09.877Z,6.60
2022-12-07T22:45:42.017Z,6.60
2022-12-07T22:48:14.348Z,6.60
2022-12-07T22:50:46.387Z,6.60
2022-12-07T22:53:20.145Z,6.60
2022-12-07T22:55:52.527Z,6.60
2022-12-07T22:58:24.911Z,6.60
2022-12-07T23:00:57.035Z,6.60
2022-12-07T23:03:29.569Z,6.60
2022-12-07T23:06:23.711Z,6.60
2022-12-07T23:09:05.573Z,6.60
2022-12-07T23:12:00.198Z,6.60
2022-12-07T23:14:36.331Z,6.60
2022-12-07T23:17:08.639Z,6.60
2022-12-07T23:19:42.928Z,6.60
2022-12-07T23:22:17.469Z,6.60
2022-12-07T23:24:53.027Z,6.60
2022-12-07T23:27:25.541Z,6.60
2022-12-07T23:29:57.662Z,6.60
2022-12-07T23:32:30.314Z,6.60
2022-12-07T23:35:02.857Z,6.50
2022-12-07T23:37:35.144Z,6.50
2022-12-07T23:40:08.177Z,6.50
2022-12-07T23:42:40.291Z,6.50
2022-12-07T23:45:16.647Z,6.50
2022-12-07T23:47:49.418Z,6.50
2022-12-07T23:50:21.578Z,6.50
2022-12-07T23:52:53.508Z,6.50
2022-12-07T23:55:25.686Z,6.50
2022-12-07T23:57:57.949Z,6.50
